createdAt,value
2017-12-28T00:00:57.908Z,57.66
2017-12-28T00:03:26.661Z,57.54
2017-12-28T00:05:55.052Z,58.26
2017-12-28T00:08:25.185Z,57.83
2017-12-28T00:10:54.475Z,57.72
2017-12-28T00:13:23.673Z,57.47
2017-12-28T00:15:54.621Z,57.16
2017-12-28T00:18:23.480Z,57.47
2017-12-28T00:20:53.284Z,57.36
2017-12-28T00:23:22.955Z,57.49
2017-12-28T00:25:51.760Z,57.25
2017-12-28T00:28:21.277Z,57.08
2017-12-28T00:30:50.064Z,57.47
2017-12-28T00:33:19.594Z,56.79
2017-12-28T00:35:48.001Z,56.50
2017-12-28T00:38:17.570Z,56.65
2017-12-28T00:40:46.145Z,56.51
2017-12-28T00:43:14.580Z,55.93
2017-12-28T00:45:43.884Z,55.76
2017-12-28T00:48:13.173Z,55.95
2017-12-28T00:50:42.938Z,55.62
2017-12-28T00:53:12.673Z,55.96
2017-12-28T00:55:42.498Z,55.69
2017-12-28T00:58:11.430Z,56.44
2017-12-28T01:00:41.320Z,56.51
2017-12-28T01:03:10.293Z,56.96
2017-12-28T01:05:40.156Z,57.37
2017-12-28T01:08:09.719Z,57.67
2017-12-28T01:10:38.798Z,57.28
2017-12-28T01:13:08.607Z,57.23
2017-12-28T01:15:37.321Z,57.13
2017-12-28T01:18:06.066Z,57.44
2017-12-28T01:20:34.684Z,57.74
2017-12-28T01:23:03.845Z,58.40
2017-12-28T01:25:32.621Z,57.54
2017-12-28T01:28:01.043Z,57.79
2017-12-28T01:30:30.339Z,57.21
2017-12-28T01:32:59.259Z,56.97
2017-12-28T01:35:28.193Z,57.10
2017-12-28T01:37:57.113Z,56.73
2017-12-28T01:40:26.448Z,56.30
2017-12-28T01:42:55.993Z,56.22
2017-12-28T01:45:25.661Z,55.97
2017-12-28T01:48:03.201Z,56.09
2017-12-28T01:50:31.725Z,56.10
2017-12-28T01:53:00.074Z,55.66
2017-12-28T01:55:29.109Z,55.54
2017-12-28T01:57:57.509Z,55.15
2017-12-28T02:00:27.094Z,55.45
2017-12-28T02:02:57.064Z,55.71
2017-12-28T02:05:25.825Z,55.09
2017-12-28T02:07:55.074Z,54.90
2017-12-28T02:10:25.402Z,55.52
2017-12-28T02:12:54.440Z,55.17
2017-12-28T02:15:23.626Z,55.26
2017-12-28T02:17:53.068Z,54.95
2017-12-28T02:20:21.498Z,54.57
2017-12-28T02:22:50.147Z,54.11
2017-12-28T02:25:18.974Z,54.34
2017-12-28T02:27:47.684Z,54.08
2017-12-28T02:30:16.501Z,53.94
2017-12-28T02:32:45.931Z,54.10
2017-12-28T02:35:15.113Z,53.54
2017-12-28T02:37:43.882Z,53.68
2017-12-28T02:40:12.936Z,53.67
2017-12-28T02:42:42.028Z,53.48
2017-12-28T02:45:11.427Z,53.42
2017-12-28T02:47:41.372Z,54.65
2017-12-28T02:50:10.304Z,54.69
2017-12-28T02:52:40.094Z,54.04
2017-12-28T02:55:09.798Z,53.93
2017-12-28T02:57:38.548Z,53.55
2017-12-28T03:00:07.395Z,53.67
2017-12-28T03:02:36.659Z,53.76
2017-12-28T03:05:05.247Z,53.80
2017-12-28T03:07:33.611Z,54.06
2017-12-28T03:10:02.191Z,53.96
2017-12-28T03:12:32.000Z,53.64
2017-12-28T03:15:01.534Z,54.22
2017-12-28T03:17:30.512Z,54.24
2017-12-28T03:19:59.842Z,53.77
2017-12-28T03:22:28.201Z,53.66
2017-12-28T03:24:56.990Z,53.80
2017-12-28T03:27:25.405Z,53.56
2017-12-28T03:29:54.509Z,53.47
2017-12-28T03:32:23.673Z,53.49
2017-12-28T03:34:52.721Z,53.46
2017-12-28T03:37:21.525Z,53.38
2017-12-28T03:39:49.905Z,53.35
2017-12-28T03:42:18.619Z,53.13
2017-12-28T03:44:46.981Z,53.18
2017-12-28T03:47:15.790Z,53.20
2017-12-28T03:49:45.445Z,53.30
2017-12-28T03:52:15.739Z,53.35
2017-12-28T03:54:44.470Z,53.92
2017-12-28T03:57:13.314Z,53.40
2017-12-28T03:59:42.433Z,53.20
2017-12-28T04:02:11.204Z,53.12
2017-12-28T04:04:40.393Z,53.52
2017-12-28T04:07:09.049Z,53.49
2017-12-28T04:09:37.648Z,53.87
2017-12-28T04:12:06.156Z,53.72
2017-12-28T04:14:35.075Z,53.80
2017-12-28T04:17:04.945Z,53.48
2017-12-28T04:19:33.933Z,53.54
2017-12-28T04:22:02.616Z,53.31
2017-12-28T04:24:31.949Z,53.25
2017-12-28T04:27:01.233Z,53.37
2017-12-28T04:29:29.724Z,53.51
2017-12-28T04:31:58.488Z,53.41
2017-12-28T04:34:27.576Z,53.50
2017-12-28T04:36:56.012Z,53.03
2017-12-28T04:39:25.022Z,53.10
2017-12-28T04:41:53.844Z,52.96
2017-12-28T04:44:23.767Z,52.97
2017-12-28T04:46:53.914Z,52.83
2017-12-28T04:49:23.447Z,52.73
2017-12-28T04:51:52.881Z,52.92
2017-12-28T04:54:22.068Z,52.88
2017-12-28T04:56:51.526Z,52.93
2017-12-28T04:59:20.344Z,53.46
2017-12-28T05:01:49.721Z,53.61
2017-12-28T05:04:19.099Z,54.41
2017-12-28T05:06:48.673Z,54.62
2017-12-28T05:09:18.672Z,54.92
2017-12-28T05:11:47.378Z,55.90
2017-12-28T05:14:16.192Z,55.96
2017-12-28T05:16:45.157Z,55.97
2017-12-28T05:19:14.057Z,56.40
2017-12-28T05:21:42.874Z,57.36
2017-12-28T05:24:12.489Z,56.86
2017-12-28T05:26:41.346Z,57.77
2017-12-28T05:29:09.730Z,56.96
2017-12-28T05:31:38.620Z,57.45
2017-12-28T05:34:07.114Z,58.10
2017-12-28T05:36:35.897Z,56.95
2017-12-28T05:39:05.856Z,57.21
2017-12-28T05:41:34.575Z,57.61
2017-12-28T05:44:04.092Z,57.82
2017-12-28T05:46:33.003Z,58.40
2017-12-28T05:49:01.733Z,58.50
2017-12-28T05:51:30.591Z,58.13
2017-12-28T05:54:00.095Z,57.17
2017-12-28T05:56:29.267Z,57.75
2017-12-28T05:58:58.725Z,57.26
2017-12-28T06:01:28.211Z,57.55
2017-12-28T06:03:57.365Z,57.58
2017-12-28T06:06:26.154Z,57.50
2017-12-28T06:08:55.495Z,56.93
2017-12-28T06:11:23.852Z,57.08
2017-12-28T06:13:52.431Z,57.11
2017-12-28T06:16:21.101Z,57.23
2017-12-28T06:18:49.477Z,56.96
2017-12-28T06:21:17.842Z,56.82
2017-12-28T06:23:46.498Z,56.63
2017-12-28T06:26:14.858Z,56.76
2017-12-28T06:28:43.637Z,56.31
2017-12-28T06:31:12.600Z,56.64
2017-12-28T06:33:41.417Z,56.64
2017-12-28T06:36:11.006Z,56.18
2017-12-28T06:38:39.553Z,57.06
2017-12-28T06:41:08.377Z,57.62
2017-12-28T06:43:37.407Z,57.18
2017-12-28T06:46:07.422Z,57.45
2017-12-28T06:48:37.229Z,57.20
2017-12-28T06:51:06.908Z,56.74
2017-12-28T06:53:35.708Z,57.07
2017-12-28T06:56:04.991Z,56.95
2017-12-28T06:58:34.988Z,57.12
2017-12-28T07:01:03.783Z,57.02
2017-12-28T07:03:33.242Z,56.47
2017-12-28T07:06:03.159Z,56.60
2017-12-28T07:08:32.439Z,56.75
2017-12-28T07:11:02.058Z,56.47
2017-12-28T07:13:32.151Z,56.70
2017-12-28T07:16:00.856Z,55.99
2017-12-28T07:18:30.358Z,56.43
2017-12-28T07:20:59.148Z,56.61
2017-12-28T07:23:27.663Z,56.52
2017-12-28T07:25:56.506Z,56.37
2017-12-28T07:28:25.768Z,56.24
2017-12-28T07:30:54.156Z,56.51
2017-12-28T07:33:22.754Z,56.32
2017-12-28T07:35:51.823Z,56.57
2017-12-28T07:38:21.562Z,56.51
2017-12-28T07:40:51.019Z,56.47
2017-12-28T07:43:19.774Z,55.58
2017-12-28T07:45:49.127Z,56.06
2017-12-28T07:48:18.701Z,55.88
2017-12-28T07:50:47.462Z,56.43
2017-12-28T07:53:16.027Z,56.20
2017-12-28T07:55:44.702Z,56.20
2017-12-28T07:58:14.328Z,56.58
2017-12-28T08:00:42.829Z,56.21
2017-12-28T08:03:11.794Z,56.14
2017-12-28T08:05:41.271Z,56.29
2017-12-28T08:08:09.688Z,57.06
2017-12-28T08:10:38.854Z,56.85
2017-12-28T08:13:07.605Z,56.34
2017-12-28T08:15:36.361Z,56.35
2017-12-28T08:18:05.139Z,56.44
2017-12-28T08:20:33.936Z,56.11
2017-12-28T08:23:02.299Z,56.12
2017-12-28T08:25:31.016Z,56.60
2017-12-28T08:27:59.486Z,56.59
2017-12-28T08:30:27.842Z,56.33
2017-12-28T08:32:57.758Z,56.65
2017-12-28T08:35:26.153Z,57.46
2017-12-28T08:37:54.511Z,57.35
2017-12-28T08:40:23.017Z,57.44
2017-12-28T08:42:51.586Z,56.37
2017-12-28T08:45:20.198Z,56.52
2017-12-28T08:47:48.589Z,56.70
2017-12-28T08:50:17.730Z,56.76
2017-12-28T08:52:47.002Z,55.95
2017-12-28T08:55:16.794Z,55.60
2017-12-28T08:57:46.810Z,55.76
2017-12-28T09:00:15.266Z,56.16
2017-12-28T09:02:43.622Z,56.08
2017-12-28T09:05:12.007Z,56.78
2017-12-28T09:07:40.380Z,56.55
2017-12-28T09:10:08.735Z,56.49
2017-12-28T09:12:37.078Z,56.42
2017-12-28T09:15:05.522Z,56.57
2017-12-28T09:17:33.908Z,56.45
2017-12-28T09:20:02.288Z,55.58
2017-12-28T09:22:30.643Z,55.46
2017-12-28T09:24:59.043Z,56.61
2017-12-28T09:27:27.456Z,56.51
2017-12-28T09:29:55.806Z,57.43
2017-12-28T09:32:24.187Z,57.28
2017-12-28T09:34:52.531Z,57.41
2017-12-28T09:37:20.879Z,56.76
2017-12-28T09:39:49.755Z,56.66
2017-12-28T09:42:18.105Z,56.30
2017-12-28T09:44:46.453Z,55.39
2017-12-28T09:47:14.810Z,55.71
2017-12-28T09:49:43.539Z,56.22
2017-12-28T09:52:11.886Z,57.04
2017-12-28T09:54:40.305Z,57.73
2017-12-28T09:57:08.686Z,57.75
2017-12-28T09:59:37.028Z,56.77
2017-12-28T10:02:05.392Z,56.46
2017-12-28T10:04:34.122Z,56.08
2017-12-28T10:07:02.527Z,56.89
2017-12-28T10:09:30.995Z,55.96
2017-12-28T10:11:59.347Z,55.74
2017-12-28T10:14:27.739Z,55.18
2017-12-28T10:16:56.120Z,55.99
2017-12-28T10:19:24.456Z,56.67
2017-12-28T10:21:53.200Z,56.46
2017-12-28T10:24:21.555Z,56.31
2017-12-28T10:26:49.935Z,57.10
2017-12-28T10:29:18.288Z,56.11
2017-12-28T10:31:46.643Z,55.50
2017-12-28T10:34:15.087Z,56.69
2017-12-28T10:36:43.437Z,57.13
2017-12-28T10:39:11.814Z,56.17
2017-12-28T10:41:40.168Z,56.20
2017-12-28T10:44:08.899Z,56.65
2017-12-28T10:46:37.263Z,56.18
2017-12-28T10:49:05.603Z,56.32
2017-12-28T10:51:34.352Z,55.84
2017-12-28T10:54:02.723Z,55.95
2017-12-28T10:56:31.069Z,55.34
2017-12-28T10:58:59.410Z,55.20
2017-12-28T11:01:27.759Z,55.30
2017-12-28T11:03:56.136Z,56.30
2017-12-28T11:06:24.499Z,56.32
2017-12-28T11:08:52.914Z,56.00
2017-12-28T11:11:21.319Z,56.73
2017-12-28T11:13:49.665Z,56.52
2017-12-28T11:16:18.066Z,56.85
2017-12-28T11:18:46.507Z,57.00
2017-12-28T11:21:14.857Z,56.51
2017-12-28T11:23:43.224Z,56.30
2017-12-28T11:26:12.052Z,56.24
2017-12-28T11:28:40.384Z,56.69
2017-12-28T11:31:09.163Z,56.74
2017-12-28T11:33:37.522Z,57.26
2017-12-28T11:36:05.855Z,56.92
2017-12-28T11:38:34.275Z,56.27
2017-12-28T11:41:02.612Z,57.55
2017-12-28T11:43:30.954Z,56.42
2017-12-28T11:45:59.713Z,55.88
2017-12-28T11:48:32.055Z,57.20
2017-12-28T11:51:00.427Z,57.35
2017-12-28T11:53:28.826Z,57.66
2017-12-28T11:56:02.679Z,58.10
2017-12-28T11:58:31.027Z,57.04
2017-12-28T12:01:04.807Z,57.01
2017-12-28T12:03:33.155Z,57.13
2017-12-28T12:06:01.932Z,57.36
2017-12-28T12:08:32.220Z,57.59
2017-12-28T12:11:00.567Z,57.04
2017-12-28T12:13:28.962Z,56.92
2017-12-28T12:15:57.327Z,56.97
2017-12-28T12:18:25.676Z,57.82
2017-12-28T12:20:54.434Z,58.00
2017-12-28T12:23:22.815Z,57.46
2017-12-28T12:25:51.157Z,57.35
2017-12-28T12:28:19.496Z,58.16
2017-12-28T12:30:47.884Z,57.81
2017-12-28T12:33:16.768Z,57.66
2017-12-28T12:35:45.615Z,57.46
2017-12-28T12:38:14.950Z,57.21
2017-12-28T12:40:43.690Z,57.41
2017-12-28T12:43:12.348Z,57.41
2017-12-28T12:45:40.726Z,57.37
2017-12-28T12:48:09.055Z,56.12
2017-12-28T12:50:37.404Z,56.79
2017-12-28T12:53:05.976Z,56.25
2017-12-28T12:55:34.393Z,57.21
2017-12-28T12:58:02.739Z,57.80
2017-12-28T13:00:31.100Z,57.29
2017-12-28T13:02:59.468Z,56.60
2017-12-28T13:05:28.294Z,57.50
2017-12-28T13:07:56.659Z,56.70
2017-12-28T13:10:25.012Z,56.15
2017-12-28T13:12:53.851Z,56.48
2017-12-28T13:15:22.218Z,56.49
2017-12-28T13:17:50.603Z,55.82
2017-12-28T13:20:18.994Z,56.00
2017-12-28T13:22:47.361Z,55.02
2017-12-28T13:25:15.731Z,55.02
2017-12-28T13:27:44.094Z,54.80
2017-12-28T13:30:12.604Z,55.62
2017-12-28T13:32:40.941Z,55.22
2017-12-28T13:35:09.372Z,55.40
2017-12-28T13:37:37.752Z,55.74
2017-12-28T13:40:06.222Z,54.36
2017-12-28T13:42:34.567Z,55.22
2017-12-28T13:45:02.933Z,54.50
2017-12-28T13:47:31.690Z,55.74
2017-12-28T13:50:00.050Z,55.80
2017-12-28T13:52:28.458Z,55.87
2017-12-28T13:54:56.898Z,55.25
2017-12-28T13:57:25.238Z,55.50
2017-12-28T13:59:54.147Z,56.08
2017-12-28T14:02:22.491Z,56.03
2017-12-28T14:04:50.923Z,54.88
2017-12-28T14:07:19.303Z,55.35
2017-12-28T14:09:47.691Z,55.74
2017-12-28T14:12:16.073Z,55.48
2017-12-28T14:14:44.446Z,55.04
2017-12-28T14:17:12.819Z,54.78
2017-12-28T14:19:41.208Z,55.47
2017-12-28T14:22:09.581Z,55.16
2017-12-28T14:24:38.099Z,56.14
2017-12-28T14:27:06.540Z,56.12
2017-12-28T14:29:34.909Z,55.85
2017-12-28T14:32:03.255Z,55.74
2017-12-28T14:34:32.074Z,55.89
2017-12-28T14:37:00.482Z,56.89
2017-12-28T14:39:28.824Z,56.26
2017-12-28T14:41:57.177Z,55.84
2017-12-28T14:44:25.940Z,55.75
2017-12-28T14:46:54.387Z,56.20
2017-12-28T14:49:22.729Z,55.74
2017-12-28T14:51:51.156Z,56.95
2017-12-28T14:54:19.490Z,56.65
2017-12-28T14:56:47.839Z,56.74
2017-12-28T14:59:16.235Z,56.28
2017-12-28T15:01:44.968Z,56.94
2017-12-28T15:04:13.310Z,56.88
2017-12-28T15:06:41.671Z,56.42
2017-12-28T15:09:10.413Z,56.38
2017-12-28T15:11:38.769Z,55.83
2017-12-28T15:14:07.149Z,56.30
2017-12-28T15:16:35.551Z,56.62
2017-12-28T15:19:03.953Z,55.96
2017-12-28T15:21:32.275Z,56.34
2017-12-28T15:24:00.623Z,55.78
2017-12-28T15:26:29.070Z,55.38
2017-12-28T15:28:57.450Z,55.26
2017-12-28T15:31:25.797Z,55.67
2017-12-28T15:33:54.216Z,56.10
2017-12-28T15:36:22.659Z,56.21
2017-12-28T15:38:51.055Z,55.50
2017-12-28T15:41:19.435Z,56.55
2017-12-28T15:43:47.820Z,55.98
2017-12-28T15:46:16.191Z,55.11
2017-12-28T15:48:44.578Z,54.79
2017-12-28T15:51:12.948Z,55.21
2017-12-28T15:53:41.291Z,55.57
2017-12-28T15:56:10.123Z,56.07
2017-12-28T15:58:38.479Z,56.49
2017-12-28T16:01:06.849Z,57.42
2017-12-28T16:03:35.191Z,57.17
2017-12-28T16:06:03.555Z,57.71
2017-12-28T16:08:31.898Z,58.23
2017-12-28T16:11:00.239Z,57.99
2017-12-28T16:13:29.080Z,56.86
2017-12-28T16:15:57.455Z,56.86
2017-12-28T16:18:25.831Z,56.50
2017-12-28T16:20:54.187Z,57.32
2017-12-28T16:23:22.597Z,57.29
2017-12-28T16:25:50.948Z,57.61
2017-12-28T16:28:19.308Z,57.73
2017-12-28T16:30:48.180Z,58.61
2017-12-28T16:33:16.587Z,58.10
2017-12-28T16:35:44.953Z,58.29
2017-12-28T16:38:13.686Z,58.47
2017-12-28T16:40:42.028Z,58.26
2017-12-28T16:43:10.395Z,57.90
2017-12-28T16:45:38.771Z,58.95
2017-12-28T16:48:07.616Z,58.60
2017-12-28T16:50:35.975Z,58.06
2017-12-28T16:53:04.359Z,57.83
2017-12-28T16:55:32.701Z,58.11
2017-12-28T16:58:01.475Z,57.71
2017-12-28T17:00:29.922Z,57.51
2017-12-28T17:02:58.265Z,58.03
2017-12-28T17:05:26.627Z,57.84
2017-12-28T17:07:55.455Z,57.79
2017-12-28T17:10:23.795Z,57.27
2017-12-28T17:12:52.624Z,57.44
2017-12-28T17:15:21.908Z,57.72
2017-12-28T17:17:50.264Z,57.93
2017-12-28T17:20:18.639Z,58.34
2017-12-28T17:22:47.453Z,58.23
2017-12-28T17:25:15.848Z,58.02
2017-12-28T17:27:44.204Z,57.69
2017-12-28T17:30:12.539Z,56.50
2017-12-28T17:32:41.095Z,56.47
2017-12-28T17:35:09.455Z,56.07
2017-12-28T17:37:37.847Z,56.34
2017-12-28T17:40:06.189Z,56.89
2017-12-28T17:42:34.607Z,56.20
2017-12-28T17:45:02.957Z,56.28
2017-12-28T17:47:31.304Z,56.34
2017-12-28T17:50:00.143Z,56.46
2017-12-28T17:52:28.525Z,56.18
2017-12-28T17:54:56.901Z,56.79
2017-12-28T17:57:25.283Z,56.77
2017-12-28T17:59:53.624Z,55.99
2017-12-28T18:02:22.468Z,55.95
2017-12-28T18:04:50.827Z,55.67
2017-12-28T18:07:19.935Z,55.51
2017-12-28T18:09:48.273Z,54.98
2017-12-28T18:12:16.631Z,54.13
2017-12-28T18:14:45.385Z,54.12
2017-12-28T18:17:13.737Z,54.24
2017-12-28T18:19:42.089Z,53.45
2017-12-28T18:22:11.003Z,52.56
2017-12-28T18:24:39.350Z,52.54
2017-12-28T18:27:08.107Z,52.66
2017-12-28T18:29:36.443Z,52.79
2017-12-28T18:32:04.848Z,52.64
2017-12-28T18:34:33.323Z,52.13
2017-12-28T18:37:01.662Z,52.54
2017-12-28T18:39:30.407Z,53.14
2017-12-28T18:41:58.875Z,54.31
2017-12-28T18:44:27.211Z,54.23
2017-12-28T18:46:55.672Z,54.58
2017-12-28T18:49:24.446Z,53.79
2017-12-28T18:51:52.795Z,54.06
2017-12-28T18:54:21.138Z,53.98
2017-12-28T18:56:49.551Z,53.40
2017-12-28T18:59:17.889Z,53.48
2017-12-28T19:01:46.239Z,54.48
2017-12-28T19:04:14.690Z,54.41
2017-12-28T19:06:43.043Z,54.35
2017-12-28T19:09:11.401Z,54.15
2017-12-28T19:11:40.179Z,54.44
2017-12-28T19:14:08.920Z,54.48
2017-12-28T19:16:37.275Z,54.54
2017-12-28T19:19:05.677Z,55.08
2017-12-28T19:21:34.039Z,54.51
2017-12-28T19:24:02.448Z,54.22
2017-12-28T19:26:30.945Z,54.73
2017-12-28T19:28:59.291Z,54.27
2017-12-28T19:31:27.627Z,53.72
2017-12-28T19:33:56.455Z,54.03
2017-12-28T19:36:24.805Z,54.68
2017-12-28T19:38:53.235Z,54.46
2017-12-28T19:41:21.695Z,53.78
2017-12-28T19:43:50.029Z,55.05
2017-12-28T19:46:18.766Z,53.63
2017-12-28T19:48:47.145Z,53.53
2017-12-28T19:51:15.486Z,52.84
2017-12-28T19:53:43.855Z,53.25
2017-12-28T19:56:12.184Z,53.20
2017-12-28T19:58:40.656Z,52.85
2017-12-28T20:01:09.030Z,52.47
2017-12-28T20:03:37.479Z,52.50
2017-12-28T20:06:05.907Z,52.12
2017-12-28T20:08:34.255Z,51.95
2017-12-28T20:11:02.635Z,50.77
2017-12-28T20:13:31.114Z,50.80
2017-12-28T20:15:59.459Z,51.07
2017-12-28T20:18:28.210Z,51.00
2017-12-28T20:20:56.554Z,51.40
2017-12-28T20:23:24.956Z,50.75
2017-12-28T20:25:53.307Z,50.44
2017-12-28T20:28:21.654Z,50.21
2017-12-28T20:30:49.993Z,49.91
2017-12-28T20:33:18.379Z,50.75
2017-12-28T20:35:46.741Z,50.74
2017-12-28T20:38:15.117Z,50.62
2017-12-28T20:40:43.499Z,50.49
2017-12-28T20:43:11.840Z,49.95
2017-12-28T20:45:40.579Z,50.59
2017-12-28T20:48:09.035Z,51.25
2017-12-28T20:50:37.374Z,50.38
2017-12-28T20:53:06.127Z,50.33
2017-12-28T20:55:34.603Z,50.58
2017-12-28T20:58:02.951Z,50.61
2017-12-28T21:00:31.697Z,50.96
2017-12-28T21:03:00.427Z,50.94
2017-12-28T21:05:28.892Z,50.50
2017-12-28T21:07:58.012Z,50.80
2017-12-28T21:10:26.387Z,51.51
2017-12-28T21:12:54.726Z,51.81
2017-12-28T21:15:23.497Z,51.07
2017-12-28T21:17:51.878Z,51.12
2017-12-28T21:20:20.233Z,51.31
2017-12-28T21:22:49.670Z,50.77
2017-12-28T21:25:18.111Z,50.68
2017-12-28T21:27:46.481Z,50.92
2017-12-28T21:30:14.992Z,50.42
2017-12-28T21:32:44.247Z,50.39
2017-12-28T21:35:12.864Z,49.92
2017-12-28T21:37:41.288Z,49.60
2017-12-28T21:40:11.220Z,50.08
2017-12-28T21:42:39.847Z,50.70
2017-12-28T21:45:08.297Z,50.96
2017-12-28T21:47:36.762Z,51.35
2017-12-28T21:50:05.103Z,50.95
2017-12-28T21:52:33.440Z,51.01
2017-12-28T21:55:01.814Z,50.99
2017-12-28T21:57:30.156Z,50.97
2017-12-28T21:59:58.888Z,50.95
2017-12-28T22:02:27.361Z,50.49
2017-12-28T22:04:55.725Z,51.30
2017-12-28T22:07:24.154Z,50.95
2017-12-28T22:09:52.703Z,50.48
2017-12-28T22:12:21.156Z,50.84
2017-12-28T22:14:50.044Z,50.14
2017-12-28T22:17:18.895Z,49.81
2017-12-28T22:19:47.259Z,49.77
2017-12-28T22:22:15.611Z,50.29
2017-12-28T22:24:43.979Z,50.44
2017-12-28T22:27:12.731Z,49.75
2017-12-28T22:29:41.086Z,49.50
2017-12-28T22:32:09.463Z,50.34
2017-12-28T22:34:37.815Z,50.47
2017-12-28T22:37:06.251Z,50.26
2017-12-28T22:39:34.712Z,50.29
2017-12-28T22:42:03.069Z,49.62
2017-12-28T22:44:31.483Z,49.73
2017-12-28T22:46:59.845Z,49.47
2017-12-28T22:49:28.248Z,49.61
2017-12-28T22:51:56.655Z,49.46
2017-12-28T22:54:25.099Z,49.06
2017-12-28T22:56:53.434Z,49.13
2017-12-28T22:59:21.959Z,49.35
2017-12-28T23:01:50.455Z,49.53
2017-12-28T23:04:18.802Z,50.08
2017-12-28T23:06:47.147Z,49.97
2017-12-28T23:09:15.516Z,49.62
2017-12-28T23:11:43.862Z,49.24
2017-12-28T23:14:12.308Z,49.78
2017-12-28T23:16:40.727Z,49.73
2017-12-28T23:19:09.073Z,49.61
2017-12-28T23:21:37.416Z,49.78
2017-12-28T23:24:05.779Z,50.02
2017-12-28T23:26:34.122Z,50.73
2017-12-28T23:29:02.512Z,50.54
2017-12-28T23:31:30.964Z,49.98
2017-12-28T23:33:59.320Z,50.22
2017-12-28T23:36:27.663Z,49.90
2017-12-28T23:38:56.515Z,49.58
2017-12-28T23:41:24.908Z,49.79
2017-12-28T23:43:53.254Z,50.33
2017-12-28T23:46:21.613Z,50.01
2017-12-28T23:48:50.018Z,50.40
2017-12-28T23:51:18.360Z,50.12
2017-12-28T23:53:47.119Z,49.71
2017-12-28T23:56:15.464Z,50.25
2017-12-28T23:58:43.812Z,49.66
